Time,TemperatureF,DewpointF,PressureIn,WindDirection,WindDirectionDegrees,WindSpeedMPH,WindSpeedGustMPH,Humidity,HourlyPrecipIn,Conditions,Clouds,dailyrainin,SoftwareType,DateUTC
2013-01-11 00:00:00,36.0,23.0,30.45,ENE,60,3.0,6.0,60,-99.99,,,-99.99,,2013-01-11 05:00:00,
2013-01-11 00:23:00,36.0,23.0,30.45,ENE,60,3.0,6.0,60,-99.99,,,-99.99,,2013-01-11 05:23:00,
2013-01-11 00:33:00,36.0,23.0,30.45,ENE,60,3.0,6.0,60,-99.99,,,-99.99,,2013-01-11 05:33:00,
2013-01-11 00:43:00,36.0,23.0,30.45,ENE,60,3.0,6.0,60,-99.99,,,-99.99,,2013-01-11 05:43:00,
2013-01-11 00:53:00,36.0,23.0,30.45,ENE,60,3.0,6.0,60,-99.99,,,-99.99,,2013-01-11 05:53:00,
2013-01-11 01:00:00,35.0,23.0,30.45,ENE,65,5.0,8.0,61,-99.99,,,-99.99,,2013-01-11 06:00:00,
2013-01-11 01:22:00,35.0,23.0,30.45,ENE,65,5.0,8.0,61,-99.99,,,-99.99,,2013-01-11 06:22:00,
2013-01-11 01:33:00,35.0,23.0,30.45,ENE,65,5.0,8.0,61,-99.99,,,-99.99,,2013-01-11 06:33:00,
2013-01-11 01:42:00,35.0,23.0,30.45,ENE,65,5.0,8.0,61,-99.99,,,-99.99,,2013-01-11 06:42:00,
2013-01-11 01:52:00,35.0,23.0,30.45,ENE,65,5.0,8.0,61,-99.99,,,-99.99,,2013-01-11 06:52:00,
2013-01-11 02:00:00,36.0,21.0,30.45,East,82,7.0,11.0,54,-99.99,,,-99.99,,2013-01-11 07:00:00,
2013-01-11 02:22:00,36.0,21.0,30.45,East,82,7.0,11.0,54,-99.99,,,-99.99,,2013-01-11 07:22:00,
2013-01-11 02:32:00,36.0,21.0,30.45,East,82,7.0,11.0,54,-99.99,,,-99.99,,2013-01-11 07:32:00,
2013-01-11 02:42:00,36.0,21.0,30.45,East,82,7.0,11.0,54,-99.99,,,-99.99,,2013-01-11 07:42:00,
2013-01-11 02:52:00,36.0,21.0,30.45,East,82,7.0,11.0,54,-99.99,,,-99.99,,2013-01-11 07:52:00,
2013-01-11 03:00:00,36.0,21.0,30.42,ENE,69,8.0,14.0,54,-99.99,,,-99.99,,2013-01-11 08:00:00,
2013-01-11 03:22:00,36.0,21.0,30.42,ENE,69,8.0,14.0,54,-99.99,,,-99.99,,2013-01-11 08:22:00,
2013-01-11 03:32:00,36.0,21.0,30.42,ENE,69,8.0,14.0,54,-99.99,,,-99.99,,2013-01-11 08:32:00,
2013-01-11 03:42:00,36.0,21.0,30.42,ENE,69,8.0,14.0,54,-99.99,,,-99.99,,2013-01-11 08:42:00,
2013-01-11 03:53:00,36.0,21.0,30.42,ENE,69,8.0,14.0,54,-99.99,,,-99.99,,2013-01-11 08:53:00,
2013-01-11 04:00:00,35.0,21.0,30.39,East,87,6.0,12.0,56,-99.99,,,-99.99,,2013-01-11 09:00:00,
2013-01-11 04:23:00,35.0,21.0,30.39,East,87,6.0,12.0,56,-99.99,,,-99.99,,2013-01-11 09:23:00,
2013-01-11 04:32:00,35.0,21.0,30.39,East,87,6.0,12.0,56,-99.99,,,-99.99,,2013-01-11 09:32:00,
2013-01-11 04:42:00,35.0,21.0,30.39,East,87,6.0,12.0,56,-99.99,,,-99.99,,2013-01-11 09:42:00,
2013-01-11 04:52:00,35.0,21.0,30.39,East,87,6.0,12.0,56,-99.99,,,-99.99,,2013-01-11 09:52:00,
2013-01-11 05:00:00,34.0,21.0,30.39,East,100,5.0,12.0,59,-99.99,,,-99.99,,2013-01-11 10:00:00,
2013-01-11 05:22:00,34.0,21.0,30.39,East,100,5.0,12.0,59,-99.99,,,-99.99,,2013-01-11 10:22:00,
2013-01-11 05:32:00,34.0,21.0,30.39,East,100,5.0,12.0,59,-99.99,,,-99.99,,2013-01-11 10:32:00,
2013-01-11 05:43:00,34.0,21.0,30.39,East,100,5.0,12.0,59,-99.99,,,-99.99,,2013-01-11 10:43:00,
2013-01-11 05:53:00,34.0,21.0,30.39,East,100,5.0,12.0,59,-99.99,,,-99.99,,2013-01-11 10:53:00,
2013-01-11 06:00:00,34.0,22.0,30.39,ESE,108,0.0,7.0,60,-99.99,,,-99.99,,2013-01-11 11:00:00,
2013-01-11 06:23:00,34.0,22.0,30.39,ESE,108,0.0,7.0,60,-99.99,,,-99.99,,2013-01-11 11:23:00,
2013-01-11 06:33:00,34.0,22.0,30.39,ESE,108,0.0,7.0,60,-99.99,,,-99.99,,2013-01-11 11:33:00,
2013-01-11 06:43:00,34.0,22.0,30.39,ESE,108,0.0,7.0,60,-99.99,,,-99.99,,2013-01-11 11:43:00,
2013-01-11 06:53:00,34.0,22.0,30.39,ESE,108,0.0,7.0,60,-99.99,,,-99.99,,2013-01-11 11:53:00,
2013-01-11 07:00:00,32.0,21.0,30.39,ESE,111,6.0,6.0,64,-99.99,,,-99.99,,2013-01-11 12:00:00,
2013-01-11 07:23:00,32.0,21.0,30.39,ESE,111,6.0,6.0,64,-99.99,,,-99.99,,2013-01-11 12:23:00,
2013-01-11 07:33:00,32.0,21.0,30.39,ESE,111,6.0,6.0,64,-99.99,,,-99.99,,2013-01-11 12:33:00,
2013-01-11 07:43:00,32.0,21.0,30.39,ESE,111,6.0,6.0,64,-99.99,,,-99.99,,2013-01-11 12:43:00,
2013-01-11 07:53:00,32.0,21.0,30.39,ESE,111,6.0,6.0,64,-99.99,,,-99.99,,2013-01-11 12:53:00,
2013-01-11 08:00:00,34.0,22.0,30.36,ESE,116,6.0,11.0,62,-99.99,,,-99.99,,2013-01-11 13:00:00,
2013-01-11 08:23:00,34.0,22.0,30.36,ESE,116,6.0,11.0,62,-99.99,,,-99.99,,2013-01-11 13:23:00,
2013-01-11 08:33:00,34.0,22.0,30.36,ESE,116,6.0,11.0,62,-99.99,,,-99.99,,2013-01-11 13:33:00,
2013-01-11 08:43:00,34.0,22.0,30.36,ESE,116,6.0,11.0,62,-99.99,,,-99.99,,2013-01-11 13:43:00,
2013-01-11 08:53:00,34.0,22.0,30.36,ESE,116,6.0,11.0,62,-99.99,,,-99.99,,2013-01-11 13:53:00,
2013-01-11 09:00:00,35.0,23.0,30.39,East,100,6.0,10.0,63,-99.99,,,-99.99,,2013-01-11 14:00:00,
2013-01-11 09:23:00,35.0,23.0,30.39,East,100,6.0,10.0,63,-99.99,,,-99.99,,2013-01-11 14:23:00,
2013-01-11 09:33:00,35.0,23.0,30.39,East,100,6.0,10.0,63,-99.99,,,-99.99,,2013-01-11 14:33:00,
2013-01-11 09:43:00,35.0,23.0,30.39,East,100,6.0,10.0,63,-99.99,,,-99.99,,2013-01-11 14:43:00,
2013-01-11 09:53:00,35.0,23.0,30.39,East,100,6.0,10.0,63,-99.99,,,-99.99,,2013-01-11 14:53:00,
2013-01-11 10:00:00,36.0,26.0,30.36,ESE,105,7.0,10.0,67,-99.99,,,-99.99,,2013-01-11 15:00:00,
2013-01-11 10:23:00,36.0,26.0,30.36,ESE,105,7.0,10.0,67,-99.99,,,-99.99,,2013-01-11 15:23:00,
2013-01-11 10:33:00,36.0,26.0,30.36,ESE,105,7.0,10.0,67,-99.99,,,-99.99,,2013-01-11 15:33:00,
2013-01-11 10:43:00,36.0,26.0,30.36,ESE,105,7.0,10.0,67,-99.99,,,-99.99,,2013-01-11 15:43:00,
2013-01-11 10:53:00,36.0,26.0,30.36,ESE,105,7.0,10.0,67,-99.99,,,-99.99,,2013-01-11 15:53:00,
2013-01-11 11:00:00,37.0,28.0,30.33,East,100,7.0,11.0,70,-99.99,,,-99.99,,2013-01-11 16:00:00,
2013-01-11 11:23:00,37.0,28.0,30.33,East,100,7.0,11.0,70,-99.99,,,-99.99,,2013-01-11 16:23:00,
2013-01-11 11:33:00,37.0,28.0,30.33,East,100,7.0,11.0,70,-99.99,,,-99.99,,2013-01-11 16:33:00,
2013-01-11 11:43:00,37.0,28.0,30.33,East,100,7.0,11.0,70,-99.99,,,-99.99,,2013-01-11 16:43:00,
2013-01-11 11:53:00,37.0,28.0,30.33,East,100,7.0,11.0,70,-99.99,,,-99.99,,2013-01-11 16:53:00,
2013-01-11 12:00:00,38.0,29.0,30.30,East,99,8.0,11.0,71,-99.99,,,-99.99,,2013-01-11 17:00:00,
2013-01-11 12:22:00,38.0,29.0,30.30,East,99,8.0,11.0,71,-99.99,,,-99.99,,2013-01-11 17:22:00,
2013-01-11 12:33:00,38.0,29.0,30.30,East,99,8.0,11.0,71,-99.99,,,-99.99,,2013-01-11 17:33:00,
2013-01-11 12:43:00,38.0,29.0,30.30,East,99,8.0,11.0,71,-99.99,,,-99.99,,2013-01-11 17:43:00,
2013-01-11 12:53:00,38.0,29.0,30.30,East,99,8.0,11.0,71,-99.99,,,-99.99,,2013-01-11 17:53:00,
2013-01-11 13:00:00,38.0,30.0,30.27,SE,129,3.0,10.0,72,-99.99,,,-99.99,,2013-01-11 18:00:00,
2013-01-11 13:24:00,38.0,30.0,30.27,SE,129,3.0,10.0,72,-99.99,,,-99.99,,2013-01-11 18:24:00,
2013-01-11 13:33:00,38.0,30.0,30.27,SE,129,3.0,10.0,72,-99.99,,,-99.99,,2013-01-11 18:33:00,
2013-01-11 13:43:00,38.0,30.0,30.27,SE,129,3.0,10.0,72,-99.99,,,-99.99,,2013-01-11 18:43:00,
2013-01-11 13:53:00,38.0,30.0,30.27,SE,129,3.0,10.0,72,-99.99,,,-99.99,,2013-01-11 18:53:00,
2013-01-11 14:00:00,41.0,32.0,30.24,SE,129,12.0,15.0,69,-99.99,,,-99.99,,2013-01-11 19:00:00,
2013-01-11 14:23:00,41.0,32.0,30.24,SE,129,12.0,15.0,69,-99.99,,,-99.99,,2013-01-11 19:23:00,
2013-01-11 14:33:00,41.0,32.0,30.24,SE,129,12.0,15.0,69,-99.99,,,-99.99,,2013-01-11 19:33:00,
2013-01-11 14:43:00,41.0,32.0,30.24,SE,129,12.0,15.0,69,-99.99,,,-99.99,,2013-01-11 19:43:00,
2013-01-11 14:54:00,41.0,32.0,30.24,SE,129,12.0,15.0,69,-99.99,,,-99.99,,2013-01-11 19:54:00,
2013-01-11 15:00:00,41.0,34.0,30.18,ESE,122,6.0,13.0,74,-99.99,,,-99.99,,2013-01-11 20:00:00,
2013-01-11 15:23:00,41.0,34.0,30.18,ESE,122,6.0,13.0,74,-99.99,,,-99.99,,2013-01-11 20:23:00,
2013-01-11 15:33:00,41.0,34.0,30.18,ESE,122,6.0,13.0,74,-99.99,,,-99.99,,2013-01-11 20:33:00,
2013-01-11 15:43:00,41.0,34.0,30.18,ESE,122,6.0,13.0,74,-99.99,,,-99.99,,2013-01-11 20:43:00,
2013-01-11 15:53:00,41.0,34.0,30.18,ESE,122,6.0,13.0,74,-99.99,,,-99.99,,2013-01-11 20:53:00,
2013-01-11 16:00:00,41.0,35.0,30.18,ESE,108,9.0,13.0,79,-99.99,,,-99.99,,2013-01-11 21:00:00,
2013-01-11 16:23:00,41.0,35.0,30.18,ESE,108,9.0,13.0,79,-99.99,,,-99.99,,2013-01-11 21:23:00,
2013-01-11 16:33:00,41.0,35.0,30.18,ESE,108,9.0,13.0,79,-99.99,,,-99.99,,2013-01-11 21:33:00,
2013-01-11 16:43:00,41.0,35.0,30.18,ESE,108,9.0,13.0,79,-99.99,,,-99.99,,2013-01-11 21:43:00,
2013-01-11 16:53:00,41.0,35.0,30.18,ESE,108,9.0,13.0,79,-99.99,,,-99.99,,2013-01-11 21:53:00,
2013-01-11 17:00:00,40.0,38.0,30.15,ESE,102,10.0,14.0,92,-99.99,,,-99.99,,2013-01-11 22:00:00,
2013-01-11 17:23:00,40.0,38.0,30.15,ESE,102,10.0,14.0,92,-99.99,,,-99.99,,2013-01-11 22:23:00,
2013-01-11 17:33:00,40.0,38.0,30.15,ESE,102,10.0,14.0,92,-99.99,,,-99.99,,2013-01-11 22:33:00,
2013-01-11 17:42:00,40.0,38.0,30.15,ESE,102,10.0,14.0,92,-99.99,,,-99.99,,2013-01-11 22:42:00,
2013-01-11 17:53:00,40.0,38.0,30.15,ESE,102,10.0,14.0,92,-99.99,,,-99.99,,2013-01-11 22:53:00,
2013-01-11 18:00:00,40.0,39.0,30.12,ENE,76,9.0,14.0,97,-99.99,,,-99.99,,2013-01-11 23:00:00,
2013-01-11 18:23:00,40.0,39.0,30.12,ENE,76,9.0,14.0,97,-99.99,,,-99.99,,2013-01-11 23:23:00,
2013-01-11 18:33:00,40.0,39.0,30.12,ENE,76,9.0,14.0,97,-99.99,,,-99.99,,2013-01-11 23:33:00,
2013-01-11 18:43:00,40.0,39.0,30.12,ENE,76,9.0,14.0,97,-99.99,,,-99.99,,2013-01-11 23:43:00,
2013-01-11 18:54:00,40.0,39.0,30.12,ENE,76,9.0,14.0,97,-99.99,,,-99.99,,2013-01-11 23:54:00,
2013-01-11 19:00:00,40.0,40.0,30.12,NW,323,0.0,11.0,98,-99.99,,,-99.99,,2013-01-12 00:00:00,
2013-01-11 19:23:00,40.0,40.0,30.12,NW,323,0.0,11.0,98,-99.99,,,-99.99,,2013-01-12 00:23:00,
2013-01-11 19:33:00,40.0,40.0,30.12,NW,323,0.0,11.0,98,-99.99,,,-99.99,,2013-01-12 00:33:00,
2013-01-11 19:43:00,40.0,40.0,30.12,NW,323,0.0,11.0,98,-99.99,,,-99.99,,2013-01-12 00:43:00,
2013-01-11 19:53:00,40.0,40.0,30.12,NW,323,0.0,11.0,98,-99.99,,,-99.99,,2013-01-12 00:53:00,
2013-01-11 20:00:00,40.0,39.0,30.09,ENE,70,6.0,7.0,98,-99.99,,,-99.99,,2013-01-12 01:00:00,
2013-01-11 20:22:00,40.0,39.0,30.09,ENE,70,6.0,7.0,98,-99.99,,,-99.99,,2013-01-12 01:22:00,
2013-01-11 20:33:00,40.0,39.0,30.09,ENE,70,6.0,7.0,98,-99.99,,,-99.99,,2013-01-12 01:33:00,
2013-01-11 20:43:00,40.0,39.0,30.09,ENE,70,6.0,7.0,98,-99.99,,,-99.99,,2013-01-12 01:43:00,
2013-01-11 20:53:00,40.0,39.0,30.09,ENE,70,6.0,7.0,98,-99.99,,,-99.99,,2013-01-12 01:53:00,
2013-01-11 21:00:00,41.0,40.0,30.09,East,84,7.0,10.0,98,-99.99,,,-99.99,,2013-01-12 02:00:00,
2013-01-11 21:22:00,41.0,40.0,30.09,East,84,7.0,10.0,98,-99.99,,,-99.99,,2013-01-12 02:22:00,
2013-01-11 21:33:00,41.0,40.0,30.09,East,84,7.0,10.0,98,-99.99,,,-99.99,,2013-01-12 02:33:00,
2013-01-11 21:43:00,41.0,40.0,30.09,East,84,7.0,10.0,98,-99.99,,,-99.99,,2013-01-12 02:43:00,
2013-01-11 21:53:00,41.0,40.0,30.09,East,84,7.0,10.0,98,-99.99,,,-99.99,,2013-01-12 02:53:00,
2013-01-11 22:00:00,41.0,41.0,30.06,East,85,6.0,10.0,99,-99.99,,,-99.99,,2013-01-12 03:00:00,
2013-01-11 22:22:00,41.0,41.0,30.06,East,85,6.0,10.0,99,-99.99,,,-99.99,,2013-01-12 03:22:00,
2013-01-11 22:33:00,41.0,41.0,30.06,East,85,6.0,10.0,99,-99.99,,,-99.99,,2013-01-12 03:33:00,
2013-01-11 22:43:00,41.0,41.0,30.06,East,85,6.0,10.0,99,-99.99,,,-99.99,,2013-01-12 03:43:00,
2013-01-11 22:53:00,41.0,41.0,30.06,East,85,6.0,10.0,99,-99.99,,,-99.99,,2013-01-12 03:53:00,
2013-01-11 23:00:00,42.0,41.0,30.06,East,87,9.0,12.0,99,-99.99,,,-99.99,,2013-01-12 04:00:00,
2013-01-11 23:22:00,42.0,41.0,30.06,East,87,9.0,12.0,99,-99.99,,,-99.99,,2013-01-12 04:22:00,
2013-01-11 23:33:00,42.0,41.0,30.06,East,87,9.0,12.0,99,-99.99,,,-99.99,,2013-01-12 04:33:00,
2013-01-11 23:43:00,42.0,41.0,30.06,East,87,9.0,12.0,99,-99.99,,,-99.99,,2013-01-12 04:43:00,
2013-01-11 23:52:00,42.0,41.0,30.06,East,87,9.0,12.0,99,-99.99,,,-99.99,,2013-01-12 04:52:00,